Time;durP1;ratioP1;P1;durP2;ratioP2;P2;SDS_P1;SDS_P2;PMS_P1;PMS_P2;Temp;Humidity;BMP_temperature;BMP_pressure;BME280_temperature;BME280_humidity;BME280_pressure;Samples;Min_cycle;Max_cycle;Signal;HPM_P1;HPM_P2
2022/05/18 00:01:35;;;;;;;14.32;5.20;;;;;;;16.22;70.76;101763.88;5112689;28;20016;-91
2022/05/18 00:04:01;;;;;;;14.32;4.75;;;;;;;16.15;71.12;101762.69;5113324;28;20107;-91
2022/05/18 00:06:26;;;;;;;14.55;5.10;;;;;;;16.14;70.75;101766.31;5094893;28;20024;-90
2022/05/18 00:08:51;;;;;;;12.10;5.03;;;;;;;16.10;71.18;101770.19;5112315;28;20020;-90
2022/05/18 00:11:19;;;;;;;17.65;5.53;;;;;;;16.05;71.54;101777.72;5094727;28;20149;-90
2022/05/18 00:13:47;;;;;;;14.93;4.90;;;;;;;16.01;71.40;101770.97;5094744;28;20028;-90
2022/05/18 00:16:14;;;;;;;12.90;5.50;;;;;;;16.01;71.74;101770.97;5112379;28;20034;-90
2022/05/18 00:18:39;;;;;;;16.20;5.60;;;;;;;15.95;72.26;101779.41;5112669;28;20156;-90
2022/05/18 00:21:06;;;;;;;17.33;5.97;;;;;;;15.92;72.31;101782.31;5094289;28;20110;-89
2022/05/18 00:23:33;;;;;;;14.07;5.53;;;;;;;15.86;72.35;101778.34;5112129;28;20035;-90
2022/05/18 00:25:58;;;;;;;13.63;5.18;;;;;;;15.87;72.60;101773.88;5112025;28;20085;-90
2022/05/18 00:28:24;;;;;;;12.02;5.80;;;;;;;15.85;72.50;101775.81;5093296;28;20104;-90
2022/05/18 00:30:50;;;;;;;14.10;5.82;;;;;;;15.81;72.39;101779.69;5111653;28;20024;-90
2022/05/18 00:33:15;;;;;;;12.98;6.20;;;;;;;15.82;72.79;101776.06;5111929;28;20477;-90
2022/05/18 00:35:41;;;;;;;12.57;6.45;;;;;;;15.80;73.07;101780.66;5111796;28;20118;-90
2022/05/18 00:38:07;;;;;;;16.70;6.00;;;;;;;15.79;72.28;101785.13;5092957;28;20019;-90
2022/05/18 00:40:34;;;;;;;13.93;6.53;;;;;;;15.73;72.57;101779.47;5100385;28;20031;-90
2022/05/18 00:43:00;;;;;;;9.90;6.15;;;;;;;15.72;72.75;101788.41;5090634;28;20462;-90
2022/05/18 00:45:25;;;;;;;13.48;6.50;;;;;;;15.66;73.37;101785.28;5105935;28;20744;-90
2022/05/18 00:47:51;;;;;;;13.02;6.57;;;;;;;15.65;72.89;101780.94;5072440;28;20344;-90
2022/05/18 00:50:24;;;;;;;18.10;6.85;;;;;;;15.66;73.40;101787.94;5089639;28;20034;-91
2022/05/18 00:52:54;;;;;;;14.57;6.63;;;;;;;15.63;73.43;101782.88;5111306;28;20107;-91
2022/05/18 00:55:24;;;;;;;16.92;6.63;;;;;;;15.62;73.82;101781.19;5111368;28;20027;-90
2022/05/18 00:57:56;;;;;;;14.40;7.03;;;;;;;15.56;73.43;101776.31;5110476;28;20015;-91
2022/05/18 01:00:21;;;;;;;15.32;7.03;;;;;;;15.52;74.22;101777.53;5093066;28;20023;-90
2022/05/18 01:02:55;;;;;;;17.67;6.50;;;;;;;15.50;73.97;101771.50;5093248;28;20027;-90
2022/05/18 01:05:27;;;;;;;14.75;6.85;;;;;;;15.47;74.50;101779.72;5092701;28;20024;-90
2022/05/18 01:07:56;;;;;;;10.82;6.53;;;;;;;15.46;74.60;101780.69;5111328;28;20356;-90
2022/05/18 01:10:22;;;;;;;14.05;6.18;;;;;;;15.41;74.35;101785.50;5111539;28;20037;-90
2022/05/18 01:12:47;;;;;;;15.95;6.88;;;;;;;15.38;75.11;101780.44;5092622;28;20076;-90
2022/05/18 01:15:19;;;;;;;12.63;6.50;;;;;;;15.39;75.11;101782.13;5109583;28;20023;-90
2022/05/18 01:17:51;;;;;;;12.80;6.32;;;;;;;15.33;75.54;101777.31;5072908;28;20024;-90
2022/05/18 01:20:21;;;;;;;14.80;6.45;;;;;;;15.33;75.31;101779.97;5090128;28;20024;-90
2022/05/18 01:23:13;;;;;;;11.05;5.60;;;;;;;15.35;74.59;101778.03;5073007;28;20032;-90
2022/05/18 01:25:50;;;;;;;16.02;6.30;;;;;;;15.30;74.97;101774.91;5072154;28;20032;-90
2022/05/18 01:28:15;;;;;;;12.05;5.78;;;;;;;15.25;75.30;101775.28;5090154;28;20016;-90
2022/05/18 01:30:45;;;;;;;11.32;5.97;;;;;;;15.21;76.11;101771.19;5071996;28;20081;-90
2022/05/18 01:33:11;;;;;;;16.98;6.28;;;;;;;15.21;75.98;101772.97;5076351;28;20514;-90
2022/05/18 01:35:41;;;;;;;13.85;6.15;;;;;;;15.16;75.58;101775.13;5090168;28;20059;-90
2022/05/18 01:38:12;;;;;;;15.93;5.70;;;;;;;15.12;76.13;101768.38;5071517;28;20484;-90
2022/05/18 01:41:09;;;;;;;9.93;5.65;;;;;;;15.15;74.90;101778.75;5071433;28;20035;-90
2022/05/18 01:43:53;;;;;;;15.15;6.13;;;;;;;15.11;75.79;101779.97;5071787;28;20373;-90
2022/05/18 01:46:20;;;;;;;19.65;6.65;;;;;;;15.05;76.59;101778.63;5089046;28;20071;-90
2022/05/18 01:48:49;;;;;;;16.65;6.25;;;;;;;15.05;76.97;101771.53;5074442;28;20035;-90
2022/05/18 01:51:43;;;;;;;16.30;6.07;;;;;;;15.06;76.41;101777.66;5110364;28;20019;-90
2022/05/18 01:54:08;;;;;;;14.95;6.13;;;;;;;15.04;77.06;101779.59;5091188;28;20036;-90
2022/05/18 01:56:33;;;;;;;15.55;6.13;;;;;;;15.03;77.46;101773.47;5110521;28;20524;-90
2022/05/18 01:58:59;;;;;;;21.27;6.40;;;;;;;15.02;77.08;101779.72;5109856;28;20426;-90
2022/05/18 02:01:25;;;;;;;14.02;5.60;;;;;;;15.01;77.44;101774.53;5106198;28;20031;-91
2022/05/18 02:03:50;;;;;;;16.73;6.47;;;;;;;15.01;77.24;101774.53;5109047;28;20419;-90
2022/05/18 02:06:16;;;;;;;13.88;6.07;;;;;;;15.02;77.23;101771.78;5090477;28;20023;-90
2022/05/18 02:08:42;;;;;;;11.10;6.22;;;;;;;14.99;77.60;101777.31;5109282;28;20031;-91
2022/05/18 02:11:27;;;;;;;13.27;6.18;;;;;;;15.02;76.78;101777.06;5109996;28;20023;-90
2022/05/18 02:13:53;;;;;;;14.65;6.15;;;;;;;14.95;78.01;101775.88;5090772;28;20032;-91
2022/05/18 02:16:19;;;;;;;17.55;6.75;;;;;;;14.94;78.52;101779.47;5090962;28;20750;-90
2022/05/18 02:18:45;;;;;;;11.77;6.35;;;;;;;14.95;77.89;101775.88;5091567;28;20379;-90
2022/05/18 02:21:12;;;;;;;15.40;6.70;;;;;;;14.93;78.63;101774.28;5109895;28;20019;-90
2022/05/18 02:23:41;;;;;;;17.48;6.80;;;;;;;14.92;78.94;101769.97;5091794;28;20065;-90
2022/05/18 02:26:12;;;;;;;15.38;6.43;;;;;;;14.90;79.20;101772.72;5110041;28;20565;-90
2022/05/18 02:28:38;;;;;;;13.82;6.28;;;;;;;14.89;79.40;101760.44;5097800;28;20333;-91
2022/05/18 02:31:04;;;;;;;13.50;6.13;;;;;;;14.89;79.43;101767.56;5108763;28;20032;-90
2022/05/18 02:33:29;;;;;;;15.30;6.68;;;;;;;14.85;79.75;101759.00;5110829;28;20049;-89
2022/05/18 02:35:54;;;;;;;12.32;6.20;;;;;;;14.88;79.13;101769.34;5118741;28;20455;-91
2022/05/18 02:38:20;;;;;;;13.45;6.30;;;;;;;14.84;79.43;101772.38;5120338;28;20027;-89
2022/05/18 02:40:45;;;;;;;14.73;6.45;;;;;;;14.83;79.86;101774.16;5097457;28;20141;-90
2022/05/18 02:43:10;;;;;;;14.48;6.75;;;;;;;14.84;80.17;101765.25;5109635;28;20110;-90
2022/05/18 02:45:36;;;;;;;9.60;6.63;;;;;;;14.85;79.76;101769.59;5091504;28;20062;-90
2022/05/18 02:48:01;;;;;;;11.85;6.80;;;;;;;14.87;80.45;101772.97;5110193;28;20020;-90
2022/05/18 02:50:28;;;;;;;11.40;6.90;;;;;;;14.89;80.59;101772.84;5109529;28;20034;-90
2022/05/18 02:52:53;;;;;;;12.93;6.82;;;;;;;14.87;80.59;101770.31;5091560;28;20020;-90
2022/05/18 02:58:02;;;;;;;10.48;7.03;;;;;;;14.84;80.69;101772.38;5109054;28;20030;-90
2022/05/18 03:00:28;;;;;;;13.07;7.70;;;;;;;14.82;80.99;101771.63;5109300;28;20035;-90
2022/05/18 03:02:54;;;;;;;13.07;7.65;;;;;;;14.84;81.49;101780.31;5091318;28;20016;-90
2022/05/18 03:05:20;;;;;;;12.55;8.32;;;;;;;14.85;81.87;101780.19;5108084;28;20035;-90
2022/05/18 03:07:45;;;;;;;16.17;9.02;;;;;;;14.92;81.52;101780.56;5106497;28;20027;-90
2022/05/18 03:10:11;;;;;;;13.07;9.07;;;;;;;14.97;80.86;101781.03;5070695;28;20024;-90
2022/05/18 03:12:36;;;;;;;13.82;9.18;;;;;;;15.02;81.11;101781.53;5090453;28;20031;-90
2022/05/18 03:15:02;;;;;;;13.32;9.40;;;;;;;15.03;80.88;101789.34;5074715;28;20028;-90
2022/05/18 03:17:27;;;;;;;13.43;9.00;;;;;;;15.09;80.80;101797.78;5093398;28;20020;-91
2022/05/18 03:19:52;;;;;;;11.90;9.50;;;;;;;15.12;80.69;101793.09;5092092;28;20024;-90
2022/05/18 03:25:02;;;;;;;14.20;9.95;;;;;;;15.24;80.91;101799.28;5092545;28;20059;-90
2022/05/18 03:27:28;;;;;;;16.65;10.60;;;;;;;15.31;80.65;101797.81;5075139;28;20035;-90
2022/05/18 03:29:53;;;;;;;15.38;10.55;;;;;;;15.35;80.49;101789.50;5093461;28;20028;-90
2022/05/18 03:32:22;;;;;;;15.80;9.45;;;;;;;15.41;80.16;101803.22;5074520;28;20353;-91
2022/05/18 03:34:47;;;;;;;13.35;10.45;;;;;;;15.43;79.90;101796.84;5092810;28;20110;-90
2022/05/18 03:37:13;;;;;;;15.23;10.60;;;;;;;15.48;80.16;101802.63;5074986;28;20530;-90
2022/05/18 03:39:38;;;;;;;13.77;9.75;;;;;;;15.51;80.25;101801.53;5092465;28;20048;-90
2022/05/18 03:42:04;;;;;;;14.70;9.50;;;;;;;15.55;80.32;101801.16;5075687;28;20034;-90
2022/05/18 03:44:29;;;;;;;15.05;9.63;;;;;;;15.57;80.16;101803.69;5108755;28;20062;-90
2022/05/18 03:46:54;;;;;;;17.00;9.88;;;;;;;15.59;80.13;101807.94;5094940;28;20472;-90
2022/05/18 03:49:20;;;;;;;16.55;9.55;;;;;;;15.63;80.18;101809.41;5095539;28;20023;-90
2022/05/18 03:51:47;;;;;;;12.40;8.80;;;;;;;15.65;80.08;101817.25;5095208;28;20024;-90
2022/05/18 03:54:13;;;;;;;12.25;9.13;;;;;;;15.69;80.02;101823.16;5096456;28;20038;-90
2022/05/18 03:56:38;;;;;;;13.27;9.02;;;;;;;15.73;79.90;101808.66;5096688;28;20098;-90
2022/05/18 03:59:03;;;;;;;13.43;8.93;;;;;;;15.78;79.63;101814.44;5116217;28;20031;-90
2022/05/18 04:01:29;;;;;;;12.20;8.98;;;;;;;15.81;79.68;101809.72;5116097;28;20024;-90
2022/05/18 04:03:54;;;;;;;13.60;8.68;;;;;;;15.85;79.26;101805.00;5108248;28;20468;-90
2022/05/18 04:06:19;;;;;;;12.02;8.07;;;;;;;15.90;79.21;101806.31;5092323;28;20028;-91
2022/05/18 04:08:45;;;;;;;11.55;7.97;;;;;;;15.96;78.67;101807.63;5103716;28;20475;-90
2022/05/18 04:11:12;;;;;;;10.40;7.70;;;;;;;16.02;78.25;101798.34;5114388;28;20047;-90
2022/05/18 04:13:37;;;;;;;10.77;7.60;;;;;;;16.10;78.00;101812.69;5113864;28;20049;-90
2022/05/18 04:16:08;;;;;;;10.02;7.20;;;;;;;16.19;77.40;101801.31;5094522;28;20156;-90
2022/05/18 04:18:34;;;;;;;11.95;7.25;;;;;;;16.27;77.09;101813.94;5095019;28;20054;-90
2022/05/18 04:20:59;;;;;;;11.18;7.70;;;;;;;16.37;76.92;101820.16;5113628;28;20051;-90
2022/05/18 04:23:25;;;;;;;10.15;7.05;;;;;;;16.45;76.43;101822.22;5094700;28;20027;-90
2022/05/18 04:25:51;;;;;;;11.95;7.07;;;;;;;16.56;76.06;101819.50;5112579;28;20073;-90
2022/05/18 04:28:17;;;;;;;12.30;7.38;;;;;;;16.64;75.72;101817.03;5093876;28;20019;-91
2022/05/18 04:30:44;;;;;;;9.85;6.72;;;;;;;16.73;75.48;101821.59;5118965;28;20114;-90
2022/05/18 04:33:15;;;;;;;11.48;6.82;;;;;;;16.82;74.84;101815.53;5111557;28;20024;-90
2022/05/18 04:35:41;;;;;;;9.55;6.88;;;;;;;16.91;74.89;101825.38;5119911;28;20083;-90
2022/05/18 04:38:06;;;;;;;7.85;6.63;;;;;;;16.97;74.46;101823.16;5101035;28;20066;-90
2022/05/18 04:40:32;;;;;;;9.30;6.70;;;;;;;17.01;74.20;101830.75;5094400;28;20544;-90
2022/05/18 04:42:57;;;;;;;12.02;6.22;;;;;;;17.07;73.80;101838.19;5112140;28;20453;-90
2022/05/18 04:45:23;;;;;;;7.30;5.90;;;;;;;17.14;74.03;101841.16;5090558;28;20158;-89
2022/05/18 04:47:49;;;;;;;9.43;5.78;;;;;;;17.16;73.70;101840.06;5090057;28;20376;-89
2022/05/18 04:50:15;;;;;;;9.52;6.05;;;;;;;17.22;72.85;101839.56;5089131;28;20118;-90
2022/05/18 04:52:40;;;;;;;7.57;6.22;;;;;;;17.29;73.07;101844.34;5092234;28;20084;-90
2022/05/18 04:55:06;;;;;;;10.68;5.85;;;;;;;17.36;72.64;101843.66;5092820;28;20028;-89
2022/05/18 04:57:32;;;;;;;7.25;5.13;;;;;;;17.42;72.09;101845.78;5090775;28;20016;-90
2022/05/18 04:59:58;;;;;;;11.85;5.63;;;;;;;17.49;72.12;101846.94;5096239;28;20020;-91
2022/05/18 05:02:23;;;;;;;9.02;5.60;;;;;;;17.59;71.64;101851.44;5077947;28;20031;-90
2022/05/18 05:04:48;;;;;;;9.02;5.15;;;;;;;17.68;71.43;101850.69;5092202;28;20028;-89
2022/05/18 05:07:14;;;;;;;10.30;5.57;;;;;;;17.77;71.03;101852.56;5092074;28;20024;-90
2022/05/18 05:09:42;;;;;;;11.82;5.72;;;;;;;17.90;70.37;101855.78;5091774;28;20028;-89
2022/05/18 05:12:08;;;;;;;12.23;5.55;;;;;;;18.01;70.35;101858.38;5090556;28;20027;-89
2022/05/18 05:14:38;;;;;;;7.18;5.13;;;;;;;18.10;70.31;101862.88;5088055;28;20020;-90
2022/05/18 05:17:04;;;;;;;9.93;5.07;;;;;;;18.21;69.91;101861.06;5079390;28;20129;-90
2022/05/18 05:19:29;;;;;;;11.68;5.00;;;;;;;18.30;69.40;101868.22;5091304;28;20449;-89
2022/05/18 05:21:55;;;;;;;6.97;4.97;;;;;;;18.39;69.16;101870.03;5077302;28;20067;-90
2022/05/18 05:24:20;;;;;;;7.93;5.07;;;;;;;18.48;68.94;101871.88;5070208;28;20016;-90
2022/05/18 05:26:46;;;;;;;6.63;5.00;;;;;;;18.55;68.72;101870.34;5070931;28;20020;-90
2022/05/18 05:29:12;;;;;;;10.18;5.65;;;;;;;18.64;68.25;101869.53;5069921;28;20029;-90
2022/05/18 05:31:40;;;;;;;8.32;5.07;;;;;;;18.70;68.09;101860.97;5068989;28;20675;-90
2022/05/18 05:34:05;;;;;;;7.40;5.18;;;;;;;18.81;67.83;101867.13;5083888;28;20028;-90
2022/05/18 05:36:31;;;;;;;10.00;5.00;;;;;;;18.85;67.63;101879.22;5088580;28;20027;-91
2022/05/18 05:38:57;;;;;;;11.00;5.13;;;;;;;18.87;67.77;101878.09;5089175;28;20020;-91
2022/05/18 05:41:23;;;;;;;8.25;4.90;;;;;;;18.98;67.56;101879.75;5090478;28;20443;-91
2022/05/18 05:43:48;;;;;;;6.35;4.85;;;;;;;19.07;67.51;101876.22;5069057;28;20115;-91
2022/05/18 05:46:14;;;;;;;10.18;5.53;;;;;;;19.17;66.93;101881.53;5091917;28;20039;-91
2022/05/18 05:48:44;;;;;;;12.15;5.10;;;;;;;19.33;66.70;101879.94;5082115;28;20073;-91
2022/05/18 05:51:13;;;;;;;10.43;5.25;;;;;;;19.48;66.46;101882.97;5101117;28;20016;-91
2022/05/18 05:53:47;;;;;;;11.25;4.85;;;;;;;19.63;65.89;101896.75;5083556;28;20023;-91
2022/05/18 05:56:14;;;;;;;8.27;4.78;;;;;;;19.77;65.31;101898.94;5084848;28;20491;-91
2022/05/18 05:58:43;;;;;;;10.18;4.68;;;;;;;19.86;65.04;101900.72;5100476;28;20402;-91
2022/05/18 06:01:11;;;;;;;13.82;4.90;;;;;;;19.95;64.63;101899.81;5101132;28;20024;-91
2022/05/18 06:03:37;;;;;;;6.22;4.47;;;;;;;19.99;64.85;101903.03;5080638;28;20062;-91
2022/05/18 06:06:06;;;;;;;6.95;4.45;;;;;;;20.03;63.99;101899.94;5102175;28;20052;-91
2022/05/18 06:08:32;;;;;;;6.20;4.80;;;;;;;20.06;63.50;101892.59;5099144;28;20103;-91
2022/05/18 06:10:59;;;;;;;9.25;4.75;;;;;;;20.14;63.50;101893.53;5099172;28;20032;-91
2022/05/18 06:13:25;;;;;;;9.48;4.70;;;;;;;20.16;64.02;101893.38;5083382;28;20455;-91
2022/05/18 06:15:50;;;;;;;7.93;4.15;;;;;;;20.20;63.97;101905.44;5079095;28;20413;-91
2022/05/18 06:18:16;;;;;;;8.65;4.25;;;;;;;20.24;63.32;101906.81;5094215;28;20076;-91
2022/05/18 06:20:42;;;;;;;9.68;4.50;;;;;;;20.29;63.30;101917.91;5096138;28;20028;-89
2022/05/18 06:23:09;;;;;;;14.27;5.00;;;;;;;20.34;62.62;101923.63;5110011;28;20063;-90
2022/05/18 06:25:36;;;;;;;10.25;4.70;;;;;;;20.38;63.08;101927.69;5089556;28;20090;-90
2022/05/18 06:28:03;;;;;;;11.05;4.90;;;;;;;20.45;62.68;101931.50;5071556;28;20024;-88
2022/05/18 06:30:29;;;;;;;16.27;5.20;;;;;;;20.50;62.43;101931.88;5101459;28;20036;-90
2022/05/18 06:32:54;;;;;;;13.68;4.80;;;;;;;20.55;62.57;101926.91;5077732;28;20301;-91
2022/05/18 06:35:20;;;;;;;14.50;4.72;;;;;;;20.60;61.89;101924.63;5089886;28;20028;-89
2022/05/18 06:37:45;;;;;;;10.15;4.57;;;;;;;20.73;61.87;101936.75;5090358;28;20024;-89
2022/05/18 06:40:11;;;;;;;17.25;5.20;;;;;;;20.77;62.21;101935.47;5089903;28;20024;-90
2022/05/18 06:42:37;;;;;;;14.73;5.18;;;;;;;20.79;60.95;101939.66;5108620;28;20032;-90
2022/05/18 06:45:08;;;;;;;15.68;5.07;;;;;;;20.82;60.97;101946.56;5087302;28;20063;-90
2022/05/18 06:47:34;;;;;;;17.98;5.05;;;;;;;20.85;60.49;101941.75;5101171;28;20495;-90
2022/05/18 06:49:59;;;;;;;17.42;5.15;;;;;;;20.90;60.51;101941.28;5093015;28;20028;-90
2022/05/18 06:52:24;;;;;;;14.70;5.47;;;;;;;20.95;60.38;101947.00;5060669;28;20032;-90
2022/05/18 06:54:51;;;;;;;25.60;7.40;;;;;;;20.97;59.94;101947.69;5095435;28;20035;-90
2022/05/18 06:57:19;;;;;;;15.23;5.40;;;;;;;21.01;59.71;101948.22;5113573;28;20020;-91
2022/05/18 06:59:44;;;;;;;16.73;5.70;;;;;;;21.10;59.90;101949.97;5088949;28;20076;-90
2022/05/18 07:02:10;;;;;;;15.90;6.18;;;;;;;21.12;59.64;101948.81;5078819;28;20023;-90
2022/05/18 07:04:35;;;;;;;10.80;5.90;;;;;;;21.15;60.63;101961.03;5104763;28;20015;-90
2022/05/18 07:07:01;;;;;;;9.73;6.25;;;;;;;21.32;59.99;101964.72;5109101;28;20035;-90
2022/05/18 07:09:27;;;;;;;13.85;7.68;;;;;;;21.49;59.05;101961.16;5083178;28;20074;-90
2022/05/18 07:11:54;;;;;;;12.88;8.35;;;;;;;21.52;58.91;101969.72;5107303;28;20479;-91
2022/05/18 07:14:21;;;;;;;11.75;8.07;;;;;;;21.72;59.08;101970.34;5106854;28;20051;-91
2022/05/18 07:16:47;;;;;;;23.05;10.05;;;;;;;21.79;59.19;101971.41;5084617;28;20480;-91
2022/05/18 07:19:14;;;;;;;17.13;9.20;;;;;;;21.79;60.01;101971.41;5101404;28;20523;-91
2022/05/18 07:21:39;;;;;;;16.35;9.30;;;;;;;21.86;59.86;101972.44;5079797;28;20539;-91
2022/05/18 07:24:06;;;;;;;14.90;8.32;;;;;;;21.91;59.79;101969.28;5101598;28;20110;-91
2022/05/18 07:26:31;;;;;;;8.98;8.07;;;;;;;21.91;60.00;101980.00;5103522;28;20061;-92
2022/05/18 07:28:58;;;;;;;12.05;8.82;;;;;;;21.94;59.92;101984.19;5085691;28;20032;-91
2022/05/18 07:31:24;;;;;;;14.65;8.43;;;;;;;21.94;60.38;101984.19;5098329;28;20530;-91
2022/05/18 07:33:49;;;;;;;11.05;7.82;;;;;;;21.88;60.10;101980.31;5094492;28;20020;-91
2022/05/18 07:36:16;;;;;;;12.63;8.88;;;;;;;21.92;60.51;101984.34;5076883;28;20042;-92
2022/05/18 07:38:42;;;;;;;13.23;9.02;;;;;;;21.97;60.08;101982.03;5084707;28;20016;-91
2022/05/18 07:41:10;;;;;;;13.23;8.98;;;;;;;22.03;59.76;101968.03;5094945;28;20384;-91
2022/05/18 07:43:36;;;;;;;11.40;8.48;;;;;;;22.00;59.75;101972.81;5092009;28;20058;-91
2022/05/18 07:46:02;;;;;;;13.77;8.68;;;;;;;22.13;60.01;101978.63;5076138;28;20047;-90
2022/05/18 07:48:28;;;;;;;13.82;9.73;;;;;;;22.30;59.71;101979.50;5106459;28;20170;-91
2022/05/18 07:50:53;;;;;;;13.52;9.23;;;;;;;22.55;59.05;101978.59;5104633;28;20106;-91
2022/05/18 07:53:19;;;;;;;15.30;8.43;;;;;;;23.18;58.22;101977.16;5099594;28;20028;-91
2022/05/18 07:55:45;;;;;;;12.05;8.00;;;;;;;23.63;57.27;101980.19;5081574;28;20085;-91
2022/05/18 07:58:13;;;;;;;12.13;8.88;;;;;;;23.77;56.35;101980.50;5087219;28;20414;-92
2022/05/18 08:00:42;;;;;;;18.00;8.75;;;;;;;24.12;56.20;101988.09;5088665;28;20031;-92
2022/05/18 08:03:09;;;;;;;16.23;8.55;;;;;;;24.65;54.38;101986.50;5095281;28;20469;-92
2022/05/18 08:05:35;;;;;;;11.35;8.10;;;;;;;24.70;53.10;101984.13;5082919;28;20375;-92
2022/05/18 08:08:13;;;;;;;11.90;8.57;;;;;;;24.63;54.65;101994.75;5106790;28;20028;-91
2022/05/18 08:16:11;;;;;;;11.30;8.80;;;;;;;24.51;55.01;101989.97;5111590;28;20100;-92
2022/05/18 08:18:36;;;;;;;15.43;9.15;;;;;;;24.90;54.63;101985.34;5104559;28;20196;-93
2022/05/18 08:21:02;;;;;;;12.77;9.38;;;;;;;25.01;53.87;101981.41;5098504;28;20031;-92
2022/05/18 08:23:28;;;;;;;15.50;9.15;;;;;;;25.28;52.34;101983.53;5105508;28;20020;-92
2022/05/18 08:25:57;;;;;;;13.75;8.98;;;;;;;25.67;52.43;101987.91;5086635;28;20495;-92
2022/05/18 08:28:24;;;;;;;14.15;8.20;;;;;;;26.08;50.99;101990.97;5093054;28;20102;-93
2022/05/18 08:30:50;;;;;;;14.35;8.55;;;;;;;26.42;50.01;101981.47;5103147;28;20369;-92
2022/05/18 08:33:15;;;;;;;14.32;8.82;;;;;;;26.49;49.67;101983.19;5084014;28;20028;-92
2022/05/18 08:35:44;;;;;;;9.85;7.63;;;;;;;26.73;49.33;101990.09;5106435;28;20114;-90
2022/05/18 08:38:10;;;;;;;8.77;7.72;;;;;;;26.52;48.49;101984.69;5093226;28;20016;-90
2022/05/18 08:40:51;;;;;;;11.77;7.45;;;;;;;26.78;50.34;101987.66;5109465;28;20036;-91
2022/05/18 08:43:31;;;;;;;11.88;7.95;;;;;;;26.84;50.08;101991.47;5112083;28;20027;-91
2022/05/18 08:46:04;;;;;;;9.43;7.78;;;;;;;26.66;49.19;101989.19;5093473;28;20126;-92
2022/05/18 08:48:42;;;;;;;12.65;7.53;;;;;;;26.93;49.84;101994.88;5111481;28;20019;-92
2022/05/18 08:51:40;;;;;;;11.18;7.82;;;;;;;26.84;49.74;101992.31;5102928;28;20024;-91
2022/05/18 08:54:05;;;;;;;12.68;8.35;;;;;;;26.67;48.64;101990.88;5080696;28;20039;-91
2022/05/18 08:56:38;;;;;;;10.97;8.00;;;;;;;26.42;49.21;102003.06;5090805;28;20463;-92
2022/05/18 08:59:08;;;;;;;9.15;8.15;;;;;;;26.32;49.04;101997.91;5109331;28;20678;-92
2022/05/18 09:01:46;;;;;;;11.13;7.78;;;;;;;26.58;48.77;101992.00;5111226;28;20027;-92
2022/05/18 09:04:18;;;;;;;13.15;7.93;;;;;;;26.57;49.07;101997.59;5081853;28;20458;-91
2022/05/18 09:06:49;;;;;;;10.10;6.07;;;;;;;26.63;48.80;101989.56;5112409;28;20032;-92
2022/05/18 09:12:08;;;;;;;6.00;5.28;;;;;;;27.04;49.01;101986.28;5098926;28;20414;-92
2022/05/18 09:14:37;;;;;;;6.75;5.43;;;;;;;27.18;47.30;101996.16;5091283;28;20020;-91
2022/05/18 09:17:05;;;;;;;7.78;5.32;;;;;;;27.11;46.22;101987.16;5084674;28;20023;-92
2022/05/18 09:19:44;;;;;;;8.95;5.63;;;;;;;27.01;47.17;101994.78;5092942;28;20035;-92
2022/05/18 09:22:27;;;;;;;8.10;4.72;;;;;;;27.27;48.17;101997.72;5098766;28;20051;-92
2022/05/18 09:25:45;;;;;;;8.40;4.95;;;;;;;27.51;46.68;101987.47;5104213;28;20035;-91
2022/05/18 09:28:18;;;;;;;7.30;5.15;;;;;;;27.30;46.47;101994.63;5105019;28;20062;-91
2022/05/18 09:31:19;;;;;;;8.95;4.95;;;;;;;27.36;47.80;101996.53;5086921;28;20027;-92
2022/05/18 09:34:10;;;;;;;6.38;3.70;;;;;;;27.43;46.14;101991.16;5098098;28;20361;-91
2022/05/18 09:36:42;;;;;;;9.20;4.40;;;;;;;27.45;44.78;102003.47;5093094;28;20421;-91
2022/05/18 09:39:14;;;;;;;6.15;5.00;;;;;;;27.36;45.36;102001.09;5110562;28;20024;-90
2022/05/18 09:41:59;;;;;;;;;;;;;;;27.48;47.63;101992.25;5110785;28;20055;-91
2022/05/18 09:44:49;;;;;;;7.60;4.68;;;;;;;27.23;47.54;101991.03;5107423;28;20288;-90
2022/05/18 09:47:21;;;;;;;6.03;4.00;;;;;;;27.16;46.42;101992.81;5067025;28;20046;-91
2022/05/18 09:49:51;;;;;;;4.10;3.20;;;;;;;27.33;45.05;101996.09;5091892;28;20149;-91
2022/05/18 09:52:27;;;;;;;6.90;3.47;;;;;;;27.29;45.19;101995.66;5081606;28;20136;-91
2022/05/18 09:54:55;;;;;;;7.15;2.83;;;;;;;27.43;46.53;101991.16;5080186;28;20031;-91
2022/05/18 09:57:23;;;;;;;9.60;2.08;;;;;;;27.59;44.56;101996.25;5082711;28;20027;-91
2022/05/18 10:00:00;;;;;;;3.70;2.10;;;;;;;27.82;44.84;101993.34;5084942;28;20031;-91
2022/05/18 10:08:21;;;;;;;3.10;1.70;;;;;;;28.31;43.27;101997.75;5105479;28;20039;-91
2022/05/18 10:11:06;;;;;;;4.00;1.88;;;;;;;28.30;43.25;101998.81;5112514;28;20034;-91
2022/05/18 10:13:35;;;;;;;3.72;1.80;;;;;;;28.19;41.79;101999.34;5078053;28;20036;-91
2022/05/18 10:16:14;;;;;;;4.00;1.90;;;;;;;28.01;42.50;102002.59;5094275;28;20491;-91
2022/05/18 10:18:45;;;;;;;3.72;1.77;;;;;;;28.08;42.84;101992.66;5109638;28;20019;-91
2022/05/18 10:21:18;;;;;;;3.90;2.00;;;;;;;28.07;42.61;101999.94;5095631;28;20063;-91
2022/05/18 10:24:06;;;;;;;4.03;2.28;;;;;;;28.15;42.29;101996.22;5072312;28;20040;-91
2022/05/18 10:26:33;;;;;;;4.03;2.33;;;;;;;28.20;42.91;101992.91;5093343;28;20081;-93
2022/05/18 10:28:59;;;;;;;5.90;2.72;;;;;;;28.15;42.33;101995.38;5100814;28;20537;-91
2022/05/18 10:31:35;;;;;;;6.57;3.30;;;;;;;27.97;42.75;101993.19;5095333;28;20028;-91
2022/05/18 10:34:28;;;;;;;9.25;2.90;;;;;;;28.16;43.22;101997.88;5080658;28;20031;-91
2022/05/18 10:36:56;;;;;;;6.03;3.13;;;;;;;28.09;42.40;101991.63;5109962;28;20027;-90
2022/05/18 10:39:48;;;;;;;5.82;3.22;;;;;;;28.34;43.28;101986.53;5091478;28;20043;-91
2022/05/18 10:42:50;;;;;;;8.05;3.53;;;;;;;28.45;43.44;101980.53;5096548;28;20032;-91
2022/05/18 10:45:25;;;;;;;7.43;3.50;;;;;;;28.35;42.95;101980.91;5074568;28;20077;-91
2022/05/18 10:47:51;;;;;;;5.80;3.65;;;;;;;28.36;42.12;101974.44;5089331;28;20067;-91
2022/05/18 10:50:37;;;;;;;6.78;3.13;;;;;;;28.64;43.33;101970.78;5097433;28;20031;-91
2022/05/18 10:53:12;;;;;;;6.95;3.22;;;;;;;28.68;42.08;101969.34;5110379;28;20024;-91
2022/05/18 10:55:52;;;;;;;5.75;2.75;;;;;;;28.75;42.00;101974.75;5096433;28;20027;-91
2022/05/18 10:58:34;;;;;;;6.70;2.67;;;;;;;28.99;42.25;101966.06;5081779;28;20016;-91
2022/05/18 11:01:22;;;;;;;3.30;2.45;;;;;;;29.19;41.05;101976.91;5080873;28;20163;-91
2022/05/18 11:03:53;;;;;;;6.90;3.08;;;;;;;29.28;41.38;101981.94;5108493;28;20020;-92
2022/05/18 11:06:27;;;;;;;5.25;2.67;;;;;;;29.57;40.51;101975.22;5109212;28;20077;-91
2022/05/18 11:08:58;;;;;;;7.50;3.72;;;;;;;29.61;39.94;101975.63;5103156;28;20443;-91
2022/05/18 11:11:32;;;;;;;8.63;3.88;;;;;;;29.43;39.95;101964.59;5100713;28;20443;-91
2022/05/18 11:14:24;;;;;;;8.48;3.63;;;;;;;29.40;40.25;101968.56;5096142;28;20077;-91
2022/05/18 11:16:49;;;;;;;6.03;3.53;;;;;;;29.29;40.14;101972.75;5069818;28;20403;-91
2022/05/18 11:19:20;;;;;;;6.55;3.20;;;;;;;29.31;41.54;101975.25;5070862;28;20032;-92
2022/05/18 11:21:57;;;;;;;5.38;2.60;;;;;;;29.36;41.98;101971.91;5089048;28;20051;-91
2022/05/18 11:24:40;;;;;;;3.28;2.80;;;;;;;29.58;40.64;101970.63;5090981;28;20028;-92
2022/05/18 11:27:33;;;;;;;5.30;3.50;;;;;;;29.50;41.19;101966.28;5091310;28;20022;-91
2022/05/18 11:30:01;;;;;;;6.47;3.45;;;;;;;29.27;39.60;101968.56;5094264;28;20032;-91
2022/05/18 11:32:51;;;;;;;5.35;2.80;;;;;;;29.15;40.92;101960.22;5096446;28;20483;-91
2022/05/18 11:35:32;;;;;;;5.07;2.35;;;;;;;29.60;40.51;101957.69;5083140;28;20076;-91
2022/05/18 11:38:12;;;;;;;10.43;3.17;;;;;;;29.63;41.04;101952.69;5082006;28;20361;-91
2022/05/18 11:41:07;;;;;;;7.50;2.88;;;;;;;29.56;40.84;101954.56;5109095;28;20051;-92
2022/05/18 11:43:47;;;;;;;5.20;2.80;;;;;;;28.98;40.62;101953.56;5112479;28;20024;-92
2022/05/18 11:46:25;;;;;;;6.35;2.58;;;;;;;28.94;41.05;101949.59;5099930;28;20055;-91
2022/05/18 11:49:20;;;;;;;5.57;2.95;;;;;;;29.15;41.20;101949.38;5101966;28;20464;-91
2022/05/18 11:51:55;;;;;;;6.60;3.17;;;;;;;29.24;39.77;101947.31;5074335;28;20031;-91